createdAt,value
2019-05-11T01:20:26.980Z,99.90
2019-05-11T01:26:40.729Z,99.90
2019-05-11T01:30:04.192Z,99.90
2019-05-11T01:33:07.704Z,99.90
2019-05-11T01:36:14.971Z,99.90
2019-05-11T01:39:14.621Z,99.90
2019-05-11T01:42:23.632Z,99.90
2019-05-11T01:45:48.609Z,99.90
2019-05-11T01:48:57.025Z,99.90
2019-05-11T01:52:04.014Z,99.90
2019-05-11T01:55:13.178Z,99.90
2019-05-11T02:06:37.232Z,99.90
2019-05-11T02:10:52.264Z,99.90
2019-05-11T02:20:02.146Z,99.90
2019-05-11T02:33:42.746Z,99.90
2019-05-11T02:37:47.737Z,99.90
2019-05-11T02:40:26.168Z,99.90
2019-05-11T03:08:22.601Z,99.90
2019-05-11T03:11:29.565Z,99.90
2019-05-11T03:14:23.811Z,99.90
2019-05-11T03:17:52.079Z,99.90
2019-05-11T03:29:13.879Z,99.90
2019-05-11T03:34:20.416Z,99.90
2019-05-11T03:35:41.312Z,99.90
2019-05-11T03:45:54.983Z,99.90
2019-05-11T03:48:48.742Z,99.90
2019-05-11T03:58:48.170Z,99.90
2019-05-11T04:02:03.344Z,99.90
2019-05-11T04:11:41.058Z,99.90
2019-05-11T04:14:54.689Z,99.90
2019-05-11T04:18:25.524Z,99.90
2019-05-11T04:21:29.393Z,99.90
2019-05-11T04:24:25.636Z,99.90
2019-05-11T04:35:27.911Z,99.90
2019-05-11T04:41:12.268Z,99.90
2019-05-11T04:44:06.168Z,99.90
2019-05-11T05:16:57.338Z,99.90
2019-05-11T08:45:22.980Z,97.60
2019-05-11T08:47:48.555Z,97.40
2019-05-11T08:50:27.726Z,97.30
2019-05-11T08:56:29.079Z,96.90
2019-05-11T09:23:39.810Z,95.20
2019-05-11T09:26:03.957Z,93.30
2019-05-11T09:29:08.657Z,94.50
2019-05-11T09:31:38.162Z,94.50
2019-05-11T09:37:04.151Z,92.60
2019-05-11T09:39:32.020Z,91.80
2019-05-11T09:42:02.974Z,92.80
2019-05-11T09:44:48.527Z,92.70
2019-05-11T11:51:33.109Z,71.60
2019-05-11T11:54:00.666Z,72.00
2019-05-11T11:56:29.485Z,70.50
2019-05-11T11:58:57.924Z,70.70
2019-05-11T12:01:38.392Z,72.00
2019-05-11T12:04:08.215Z,72.10
2019-05-11T12:06:38.364Z,71.10
2019-05-11T12:09:08.787Z,71.00
2019-05-11T12:11:38.014Z,70.10
2019-05-11T12:14:08.508Z,70.60
2019-05-11T12:16:38.771Z,70.80
2019-05-11T12:19:08.390Z,68.40
2019-05-11T12:21:39.052Z,68.50
2019-05-11T12:24:08.286Z,69.70
2019-05-11T12:26:49.711Z,70.30
2019-05-11T12:29:33.262Z,70.30
2019-05-11T12:32:03.596Z,70.50
2019-05-11T12:34:34.349Z,66.60
2019-05-11T12:37:02.758Z,69.10
2019-05-11T12:39:33.215Z,67.20
2019-05-11T12:42:05.370Z,67.90
2019-05-11T12:44:39.943Z,67.30
2019-05-11T12:47:21.550Z,69.80
2019-05-11T12:49:39.034Z,71.70
2019-05-11T12:52:09.545Z,68.10
2019-05-11T12:54:38.468Z,68.90
2019-05-11T12:57:07.911Z,62.80
2019-05-11T13:00:14.673Z,68.00
2019-05-11T13:02:43.133Z,72.00
2019-05-11T13:05:14.642Z,67.10
2019-05-11T13:07:42.902Z,66.40
2019-05-11T13:10:37.477Z,71.20
2019-05-11T13:13:12.866Z,65.80
2019-05-11T13:15:41.386Z,68.00
2019-05-11T13:18:12.580Z,69.10
2019-05-11T13:20:40.732Z,68.70
2019-05-11T13:23:18.334Z,67.40
2019-05-11T13:25:48.049Z,67.80
2019-05-11T13:28:17.992Z,68.40
2019-05-11T13:30:46.062Z,66.40
2019-05-11T13:33:14.158Z,67.30
2019-05-11T13:35:42.267Z,63.30
2019-05-11T13:38:10.500Z,66.40
2019-05-11T13:40:38.899Z,68.40
2019-05-11T13:43:09.689Z,66.30
2019-05-11T13:45:39.916Z,68.50
2019-05-11T13:48:08.549Z,70.30
2019-05-11T13:50:38.634Z,70.40
2019-05-11T13:53:07.763Z,72.80
2019-05-11T13:55:39.238Z,73.50
2019-05-11T13:58:08.346Z,74.00
2019-05-11T14:00:38.121Z,74.00
2019-05-11T14:03:08.109Z,75.80
2019-05-11T14:05:37.917Z,70.50
2019-05-11T14:08:07.886Z,68.10
2019-05-11T14:10:35.004Z,69.90
2019-05-11T14:13:03.594Z,72.80
2019-05-11T14:15:31.313Z,72.50
2019-05-11T14:18:09.339Z,72.20
2019-05-11T14:20:37.902Z,74.40
2019-05-11T14:23:07.744Z,72.10
2019-05-11T14:25:39.499Z,73.30
2019-05-11T14:28:18.010Z,72.30
2019-05-11T14:31:03.467Z,71.20
2019-05-11T14:33:31.394Z,70.60
2019-05-11T14:36:02.439Z,72.30
2019-05-11T14:38:30.581Z,69.00
2019-05-11T14:40:58.744Z,70.70
2019-05-11T14:43:29.758Z,70.10
2019-05-11T14:45:59.514Z,70.60
2019-05-11T14:48:30.071Z,69.10
2019-05-11T14:51:03.839Z,68.80
2019-05-11T14:53:34.677Z,68.80
2019-05-11T14:56:08.162Z,69.10
2019-05-11T14:58:38.760Z,68.70
2019-05-11T15:01:14.599Z,70.40
2019-05-11T15:03:43.966Z,71.10
2019-05-11T15:06:13.066Z,70.70
2019-05-11T15:08:41.760Z,68.30
2019-05-11T15:11:09.861Z,68.80
2019-05-11T15:13:38.465Z,71.30
2019-05-11T15:16:08.133Z,70.90
2019-05-11T15:18:41.830Z,68.30
2019-05-11T15:21:09.870Z,69.10
2019-05-11T15:23:38.836Z,68.80
2019-05-11T15:26:12.484Z,70.10
2019-05-11T15:28:43.632Z,68.70
2019-05-11T15:31:12.037Z,68.50
2019-05-11T15:33:53.827Z,67.60
2019-05-11T15:36:49.001Z,67.90
2019-05-11T15:39:21.505Z,67.50
2019-05-11T15:42:13.256Z,69.90
2019-05-11T15:44:37.842Z,68.00
2019-05-11T15:47:08.807Z,67.10
2019-05-11T15:50:08.195Z,67.50
2019-05-11T15:52:40.219Z,67.30
2019-05-11T15:55:09.629Z,70.90
2019-05-11T15:57:38.634Z,70.00
2019-05-11T16:00:08.972Z,70.50
2019-05-11T16:02:37.872Z,70.40
2019-05-11T16:05:08.593Z,70.10
2019-05-11T16:07:38.415Z,71.40
2019-05-11T16:10:08.082Z,71.40
2019-05-11T16:12:38.853Z,71.10
2019-05-11T16:15:08.743Z,72.30
2019-05-11T16:17:40.022Z,74.00
2019-05-11T16:20:08.727Z,74.50
2019-05-11T16:22:38.474Z,75.10
2019-05-11T16:25:08.376Z,75.30
2019-05-11T16:27:37.926Z,76.20
2019-05-11T16:30:08.344Z,76.90
2019-05-11T16:32:38.476Z,83.70
2019-05-11T16:35:08.793Z,87.10
2019-05-11T16:37:38.038Z,89.60
2019-05-11T16:40:07.689Z,90.70
2019-05-11T16:42:35.797Z,91.70
2019-05-11T16:45:04.339Z,91.80
2019-05-11T16:47:32.079Z,92.00
2019-05-11T16:50:01.815Z,92.80
2019-05-11T16:52:29.375Z,92.90
2019-05-11T16:54:58.311Z,93.30
2019-05-11T16:57:30.875Z,93.70
2019-05-11T16:59:59.577Z,94.70
2019-05-11T17:02:27.440Z,95.20
2019-05-11T17:04:58.437Z,96.00
2019-05-11T17:07:29.859Z,96.80
2019-05-11T17:09:57.361Z,98.30
2019-05-11T17:12:28.685Z,98.60
2019-05-11T17:14:59.126Z,99.10
2019-05-11T17:17:27.926Z,99.20
2019-05-11T17:19:59.865Z,99.50
2019-05-11T17:22:28.226Z,99.90
2019-05-11T17:24:58.790Z,99.90
2019-05-11T17:27:29.358Z,99.90
2019-05-11T17:29:59.331Z,99.90
2019-05-11T17:32:29.320Z,99.90
2019-05-11T17:34:58.115Z,99.90
2019-05-11T17:37:25.801Z,99.90
2019-05-11T17:39:53.576Z,99.90
2019-05-11T17:42:21.595Z,99.90
2019-05-11T17:44:49.364Z,99.90
2019-05-11T17:47:19.683Z,99.90
2019-05-11T17:49:59.285Z,99.90
2019-05-11T17:52:18.685Z,99.90
2019-05-11T17:54:47.764Z,99.90
2019-05-11T17:57:15.933Z,99.90
2019-05-11T17:59:47.496Z,99.90
2019-05-11T18:02:15.078Z,99.90
2019-05-11T18:44:53.832Z,99.90
2019-05-11T18:47:55.860Z,99.90
2019-05-11T19:01:41.215Z,99.90
2019-05-11T19:04:10.405Z,99.90
2019-05-11T19:07:16.233Z,99.90
2019-05-11T19:09:57.590Z,99.90
2019-05-11T19:15:22.528Z,99.90
2019-05-11T19:18:45.042Z,99.90
2019-05-11T19:24:58.345Z,99.90
2019-05-11T19:27:50.570Z,99.90
2019-05-11T19:30:38.346Z,99.90
2019-05-11T19:33:19.167Z,99.90
2019-05-11T19:43:00.956Z,99.90
2019-05-11T19:49:38.782Z,99.90
2019-05-11T19:52:40.298Z,99.90
2019-05-11T21:55:21.244Z,99.90
2019-05-11T21:57:49.814Z,99.90
2019-05-11T22:00:18.983Z,99.90
2019-05-11T22:02:48.621Z,99.90
2019-05-11T22:05:20.194Z,99.90
2019-05-11T22:07:48.961Z,99.90
2019-05-11T22:10:19.333Z,99.90
2019-05-11T22:12:49.006Z,99.90
2019-05-11T22:15:18.000Z,99.90
2019-05-11T22:17:49.425Z,99.90
2019-05-11T22:20:21.050Z,99.90
2019-05-11T22:22:53.123Z,99.90
2019-05-11T22:25:21.121Z,99.90
2019-05-11T22:27:49.636Z,99.90
2019-05-11T22:30:18.515Z,99.90
2019-05-11T22:32:48.020Z,99.90
2019-05-11T22:35:19.516Z,99.90
2019-05-11T22:37:49.005Z,99.90
2019-05-11T22:40:28.058Z,99.90
2019-05-11T22:43:01.249Z,99.90
2019-05-11T22:45:28.731Z,99.90
2019-05-11T22:48:21.226Z,99.90
2019-05-11T22:50:50.669Z,99.90
2019-05-11T22:53:43.435Z,99.90
2019-05-11T22:56:01.902Z,99.90
2019-05-11T22:58:33.396Z,99.90
2019-05-11T23:01:08.479Z,99.90
2019-05-11T23:03:43.449Z,99.90
2019-05-11T23:06:20.777Z,99.90
2019-05-11T23:09:31.940Z,99.90
2019-05-11T23:15:17.204Z,99.90
2019-05-11T23:17:45.240Z,99.90
2019-05-11T23:20:20.173Z,99.90
2019-05-11T23:23:04.846Z,99.90
2019-05-11T23:26:28.229Z,99.90
2019-05-11T23:29:03.665Z,99.90
2019-05-11T23:31:31.628Z,99.90
2019-05-11T23:34:10.833Z,99.90
2019-05-11T23:37:07.984Z,99.90
2019-05-11T23:39:33.330Z,99.90
2019-05-11T23:42:12.288Z,99.90
2019-05-11T23:47:39.042Z,99.90
2019-05-11T23:50:28.117Z,99.90
2019-05-11T23:53:06.621Z,99.90
2019-05-11T23:55:37.949Z,99.90
2019-05-11T23:58:07.990Z,99.90
